GRMLN EGPK-EGPH
Flight info
| Callsign | GRMLN |
|---|---|
| Flight time | 0h 34m |
| Altitude | 1800 |
| Route | EGPK VP448 VP462 VP473 EGPH |
| Aircraft | EC45/L-SFG/C |
Departure
| Time | 2026-04-25 18:25 |
|---|---|
| Airport | Glasgow Prestwick Airport (EGPK) |
Arrival
| Time | 2026-04-25 19:00 |
|---|---|
| Airport | Edinburgh Airport (EGPH) |
| Time | Latitude | Longitude | Altitude | Speed | Heading |
|---|---|---|---|---|---|
| 2026-04-25 18:12 | 55.51083 | -4.58739 | 43 ft | 0 kts | 339° |
| 2026-04-25 18:19 | 55.51090 | -4.58745 | 45 ft | 2 kts | 212° |
| 2026-04-25 18:20 | 55.51059 | -4.58764 | 48 ft | 3 kts | 197° |
| 2026-04-25 18:20 | 55.51032 | -4.58789 | 46 ft | 4 kts | 246° |
| 2026-04-25 18:20 | 55.51017 | -4.58816 | 47 ft | 1 kts | 255° |
| 2026-04-25 18:20 | 55.51008 | -4.58854 | 48 ft | 6 kts | 256° |
| 2026-04-25 18:21 | 55.50986 | -4.58934 | 49 ft | 9 kts | 255° |
| 2026-04-25 18:21 | 55.50964 | -4.59020 | 49 ft | 7 kts | 254° |
| 2026-04-25 18:21 | 55.50948 | -4.59082 | 47 ft | 2 kts | 254° |
| 2026-04-25 18:21 | 55.50945 | -4.59093 | 42 ft | 0 kts | 253° |
| 2026-04-25 18:23 | 55.50945 | -4.59094 | 42 ft | 1 kts | 255° |
| 2026-04-25 18:24 | 55.50931 | -4.59147 | 44 ft | 8 kts | 255° |
| 2026-04-25 18:24 | 55.50901 | -4.59255 | 46 ft | 7 kts | 254° |
| 2026-04-25 18:24 | 55.50900 | -4.59331 | 98 ft | 21 kts | 305° |
| 2026-04-25 18:24 | 55.51115 | -4.60030 | 169 ft | 95 kts | 301° |
| 2026-04-25 18:25 | 55.51510 | -4.61083 | 363 ft | 110 kts | 298° |
| 2026-04-25 18:25 | 55.51898 | -4.62207 | 650 ft | 103 kts | 315° |
| 2026-04-25 18:25 | 55.52467 | -4.62128 | 992 ft | 87 kts | 45° |
| 2026-04-25 18:25 | 55.52854 | -4.61216 | 1114 ft | 99 kts | 58° |
| 2026-04-25 18:26 | 55.53189 | -4.60114 | 1275 ft | 101 kts | 60° |
| 2026-04-25 18:26 | 55.53586 | -4.59147 | 1504 ft | 99 kts | 54° |
| 2026-04-25 18:26 | 55.54052 | -4.58237 | 1671 ft | 101 kts | 48° |
| 2026-04-25 18:26 | 55.54563 | -4.57388 | 1738 ft | 100 kts | 44° |
| 2026-04-25 18:27 | 55.55101 | -4.56601 | 1763 ft | 100 kts | 41° |
| 2026-04-25 18:27 | 55.55655 | -4.55861 | 1771 ft | 100 kts | 38° |
| 2026-04-25 18:27 | 55.56224 | -4.55155 | 1776 ft | 101 kts | 37° |
| 2026-04-25 18:27 | 55.56808 | -4.54469 | 1782 ft | 101 kts | 35° |
| 2026-04-25 18:28 | 55.57400 | -4.53809 | 1789 ft | 101 kts | 34° |
| 2026-04-25 18:28 | 55.57997 | -4.53168 | 1780 ft | 100 kts | 34° |
| 2026-04-25 18:28 | 55.58599 | -4.52536 | 1785 ft | 101 kts | 33° |
| 2026-04-25 18:29 | 55.59813 | -4.51306 | 1795 ft | 101 kts | 32° |
| 2026-04-25 18:29 | 55.60424 | -4.50702 | 1794 ft | 101 kts | 32° |
| 2026-04-25 18:30 | 55.61521 | -4.47845 | 1799 ft | 98 kts | 78° |
| 2026-04-25 18:30 | 55.61673 | -4.46673 | 1799 ft | 95 kts | 77° |
| 2026-04-25 18:30 | 55.61853 | -4.45636 | 1793 ft | 85 kts | 72° |
| 2026-04-25 18:30 | 55.62062 | -4.44593 | 1799 ft | 93 kts | 71° |
| 2026-04-25 18:31 | 55.62281 | -4.43540 | 1803 ft | 87 kts | 71° |
| 2026-04-25 18:31 | 55.62509 | -4.42531 | 1800 ft | 89 kts | 70° |
| 2026-04-25 18:31 | 55.62730 | -4.41517 | 1800 ft | 90 kts | 70° |
| 2026-04-25 18:31 | 55.63038 | -4.40548 | 1798 ft | 94 kts | 63° |
| 2026-04-25 18:32 | 55.63396 | -4.39619 | 1806 ft | 88 kts | 59° |
| 2026-04-25 18:32 | 55.63740 | -4.38660 | 1798 ft | 96 kts | 62° |
| 2026-04-25 18:32 | 55.64102 | -4.37709 | 1800 ft | 89 kts | 61° |
| 2026-04-25 18:32 | 55.64462 | -4.36766 | 1795 ft | 93 kts | 61° |
| 2026-04-25 18:33 | 55.64821 | -4.35868 | 1796 ft | 90 kts | 59° |
| 2026-04-25 18:33 | 55.65176 | -4.34937 | 1801 ft | 92 kts | 59° |
| 2026-04-25 18:33 | 55.65538 | -4.33985 | 1801 ft | 97 kts | 60° |
| 2026-04-25 18:33 | 55.65899 | -4.32989 | 1799 ft | 93 kts | 60° |
| 2026-04-25 18:34 | 55.66239 | -4.32064 | 1796 ft | 93 kts | 59° |
| 2026-04-25 18:34 | 55.66590 | -4.31118 | 1806 ft | 89 kts | 59° |
| 2026-04-25 18:34 | 55.66920 | -4.30217 | 1792 ft | 91 kts | 59° |
| 2026-04-25 18:34 | 55.67265 | -4.29222 | 1818 ft | 93 kts | 61° |
| 2026-04-25 18:35 | 55.67599 | -4.28280 | 1796 ft | 92 kts | 59° |
| 2026-04-25 18:35 | 55.67928 | -4.27280 | 1805 ft | 94 kts | 61° |
| 2026-04-25 18:35 | 55.68266 | -4.26317 | 1799 ft | 94 kts | 60° |
| 2026-04-25 18:35 | 55.68595 | -4.25348 | 1798 ft | 91 kts | 61° |
| 2026-04-25 18:36 | 55.68921 | -4.24433 | 1788 ft | 88 kts | 59° |
| 2026-04-25 18:36 | 55.69138 | -4.23829 | 1786 ft | 87 kts | 61° |
| 2026-04-25 18:36 | 55.69597 | -4.22589 | 1786 ft | 94 kts | 60° |
| 2026-04-25 18:36 | 55.69926 | -4.21637 | 1793 ft | 87 kts | 60° |
| 2026-04-25 18:37 | 55.70269 | -4.20727 | 1784 ft | 92 kts | 60° |
| 2026-04-25 18:37 | 55.70501 | -4.20111 | 1786 ft | 87 kts | 61° |
| 2026-04-25 18:37 | 55.70847 | -4.19234 | 1783 ft | 91 kts | 59° |
| 2026-04-25 18:37 | 55.71333 | -4.17972 | 1783 ft | 92 kts | 60° |
| 2026-04-25 18:38 | 55.71574 | -4.17354 | 1783 ft | 89 kts | 60° |
| 2026-04-25 18:38 | 55.71924 | -4.16461 | 1790 ft | 88 kts | 60° |
| 2026-04-25 18:38 | 55.72276 | -4.15550 | 1784 ft | 92 kts | 60° |
| 2026-04-25 18:38 | 55.72623 | -4.14625 | 1791 ft | 88 kts | 60° |
| 2026-04-25 18:39 | 55.72969 | -4.13719 | 1792 ft | 89 kts | 60° |
| 2026-04-25 18:39 | 55.73325 | -4.12822 | 1791 ft | 89 kts | 60° |
| 2026-04-25 18:39 | 55.73692 | -4.11909 | 1793 ft | 92 kts | 59° |
| 2026-04-25 18:39 | 55.74044 | -4.10980 | 1792 ft | 90 kts | 60° |
| 2026-04-25 18:40 | 55.74401 | -4.10044 | 1796 ft | 91 kts | 61° |
| 2026-04-25 18:40 | 55.74763 | -4.09155 | 1791 ft | 88 kts | 59° |
| 2026-04-25 18:40 | 55.75108 | -4.08241 | 1793 ft | 92 kts | 60° |
| 2026-04-25 18:40 | 55.75487 | -4.07340 | 1788 ft | 93 kts | 52° |
| 2026-04-25 18:41 | 55.75968 | -4.06545 | 1797 ft | 94 kts | 47° |
| 2026-04-25 18:41 | 55.76446 | -4.05790 | 1790 ft | 92 kts | 47° |
| 2026-04-25 18:41 | 55.76925 | -4.05023 | 1796 ft | 91 kts | 48° |
| 2026-04-25 18:41 | 55.77397 | -4.04261 | 1796 ft | 91 kts | 46° |
| 2026-04-25 18:42 | 55.77867 | -4.03498 | 1797 ft | 90 kts | 46° |
| 2026-04-25 18:42 | 55.78177 | -4.02992 | 1789 ft | 93 kts | 49° |
| 2026-04-25 18:42 | 55.78820 | -4.01935 | 1798 ft | 93 kts | 47° |
| 2026-04-25 18:42 | 55.79382 | -4.01388 | 1789 ft | 95 kts | 23° |
| 2026-04-25 18:43 | 55.80017 | -4.01024 | 1789 ft | 94 kts | 34° |
| 2026-04-25 18:43 | 55.80563 | -4.00423 | 1796 ft | 93 kts | 39° |
| 2026-04-25 18:43 | 55.81084 | -3.99777 | 1792 ft | 91 kts | 40° |
| 2026-04-25 18:43 | 55.81614 | -3.99109 | 1791 ft | 96 kts | 41° |
| 2026-04-25 18:44 | 55.82160 | -3.98453 | 1796 ft | 93 kts | 38° |
| 2026-04-25 18:44 | 55.82716 | -3.97856 | 1801 ft | 93 kts | 36° |
| 2026-04-25 18:44 | 55.83269 | -3.97285 | 1800 ft | 92 kts | 37° |
| 2026-04-25 18:44 | 55.83838 | -3.96705 | 1800 ft | 95 kts | 37° |
| 2026-04-25 18:45 | 55.84404 | -3.96112 | 1800 ft | 94 kts | 35° |
| 2026-04-25 18:45 | 55.84972 | -3.95498 | 1800 ft | 96 kts | 36° |
| 2026-04-25 18:45 | 55.85543 | -3.94911 | 1797 ft | 94 kts | 36° |
| 2026-04-25 18:45 | 55.86102 | -3.94349 | 1802 ft | 91 kts | 37° |
| 2026-04-25 18:46 | 55.86664 | -3.93858 | 1700 ft | 91 kts | 33° |
| 2026-04-25 18:46 | 55.87246 | -3.93372 | 1530 ft | 96 kts | 22° |
| 2026-04-25 18:46 | 55.87941 | -3.93412 | 1456 ft | 102 kts | 0° |
| 2026-04-25 18:46 | 55.88643 | -3.93600 | 1466 ft | 103 kts | 1° |
| 2026-04-25 18:47 | 55.89346 | -3.93855 | 1400 ft | 103 kts | 358° |
| 2026-04-25 18:47 | 55.90040 | -3.93998 | 1416 ft | 97 kts | 17° |
| 2026-04-25 18:47 | 55.90621 | -3.93536 | 1406 ft | 90 kts | 39° |
| 2026-04-25 18:47 | 55.91032 | -3.92743 | 1403 ft | 88 kts | 63° |
| 2026-04-25 18:48 | 55.91329 | -3.91834 | 1393 ft | 85 kts | 65° |
| 2026-04-25 18:48 | 55.91619 | -3.90920 | 1391 ft | 85 kts | 65° |
| 2026-04-25 18:48 | 55.91911 | -3.90008 | 1413 ft | 84 kts | 66° |
| 2026-04-25 18:48 | 55.92209 | -3.89078 | 1356 ft | 86 kts | 63° |
| 2026-04-25 18:49 | 55.92505 | -3.88167 | 1321 ft | 83 kts | 64° |
| 2026-04-25 18:49 | 55.92802 | -3.87238 | 1306 ft | 88 kts | 64° |
| 2026-04-25 18:49 | 55.93098 | -3.86321 | 1302 ft | 84 kts | 65° |
| 2026-04-25 18:49 | 55.93393 | -3.85397 | 1303 ft | 85 kts | 64° |
| 2026-04-25 18:50 | 55.93679 | -3.84512 | 1306 ft | 83 kts | 65° |
| 2026-04-25 18:50 | 55.93975 | -3.83585 | 1309 ft | 86 kts | 63° |
| 2026-04-25 18:50 | 55.94272 | -3.82665 | 1306 ft | 86 kts | 64° |
| 2026-04-25 18:50 | 55.94571 | -3.81731 | 1308 ft | 87 kts | 63° |
| 2026-04-25 18:51 | 55.94875 | -3.80783 | 1310 ft | 89 kts | 63° |
| 2026-04-25 18:51 | 55.95065 | -3.80200 | 1316 ft | 75 kts | 64° |
| 2026-04-25 18:51 | 55.95390 | -3.79206 | 1306 ft | 68 kts | 65° |
| 2026-04-25 18:51 | 55.95630 | -3.78461 | 1310 ft | 68 kts | 64° |
| 2026-04-25 18:52 | 55.95829 | -3.77738 | 1301 ft | 66 kts | 81° |
| 2026-04-25 18:52 | 55.95816 | -3.76837 | 1290 ft | 86 kts | 95° |
| 2026-04-25 18:52 | 55.95765 | -3.75639 | 1307 ft | 102 kts | 91° |
| 2026-04-25 18:52 | 55.95723 | -3.74335 | 1306 ft | 111 kts | 91° |
| 2026-04-25 18:53 | 55.95687 | -3.73001 | 1309 ft | 106 kts | 91° |
| 2026-04-25 18:53 | 55.95656 | -3.71707 | 1306 ft | 105 kts | 92° |
| 2026-04-25 18:53 | 55.95625 | -3.70392 | 1309 ft | 105 kts | 91° |
| 2026-04-25 18:53 | 55.95596 | -3.69097 | 1309 ft | 105 kts | 90° |
| 2026-04-25 18:54 | 55.95540 | -3.66452 | 1307 ft | 106 kts | 91° |
| 2026-04-25 18:54 | 55.95511 | -3.65107 | 1313 ft | 109 kts | 90° |
| 2026-04-25 18:54 | 55.95486 | -3.63786 | 1314 ft | 105 kts | 90° |
| 2026-04-25 18:55 | 55.95463 | -3.62471 | 1315 ft | 106 kts | 90° |
| 2026-04-25 18:55 | 55.95440 | -3.61170 | 1309 ft | 107 kts | 90° |
| 2026-04-25 18:55 | 55.95416 | -3.59858 | 1306 ft | 107 kts | 90° |
| 2026-04-25 18:55 | 55.95391 | -3.58551 | 1315 ft | 106 kts | 91° |
| 2026-04-25 18:56 | 55.95367 | -3.57232 | 1309 ft | 106 kts | 91° |
| 2026-04-25 18:56 | 55.95339 | -3.55896 | 1311 ft | 108 kts | 90° |
| 2026-04-25 18:56 | 55.95314 | -3.54564 | 1317 ft | 108 kts | 89° |
| 2026-04-25 18:56 | 55.95273 | -3.53240 | 1387 ft | 102 kts | 98° |
| 2026-04-25 18:57 | 55.94924 | -3.52180 | 1530 ft | 105 kts | 123° |
| 2026-04-25 18:57 | 55.94411 | -3.50966 | 1186 ft | 129 kts | 121° |
| 2026-04-25 18:57 | 55.93896 | -3.49656 | 1117 ft | 127 kts | 115° |
| 2026-04-25 18:57 | 55.93594 | -3.48741 | 971 ft | 131 kts | 115° |
| 2026-04-25 18:58 | 55.93037 | -3.46947 | 981 ft | 120 kts | 112° |
| 2026-04-25 18:58 | 55.92811 | -3.43989 | 726 ft | 124 kts | 75° |
| 2026-04-25 18:58 | 55.93119 | -3.42602 | 633 ft | 119 kts | 59° |
| 2026-04-25 18:59 | 55.94039 | -3.40120 | 345 ft | 121 kts | 59° |
| 2026-04-25 18:59 | 55.94710 | -3.38094 | 150 ft | 83 kts | 62° |
| 2026-04-25 19:00 | 55.95155 | -3.36793 | 123 ft | 32 kts | 62° |
| 2026-04-25 19:00 | 55.95237 | -3.36522 | 115 ft | 22 kts | 61° |
| 2026-04-25 19:01 | 55.95190 | -3.36350 | 113 ft | 12 kts | 155° |
| 2026-04-25 19:01 | 55.95142 | -3.36265 | 115 ft | 5 kts | 65° |
| 2026-04-25 19:01 | 55.95154 | -3.36229 | 112 ft | 0 kts | 71° |
| 2026-04-25 19:02 | 55.95178 | -3.36147 | 115 ft | 7 kts | 64° |
| 2026-04-25 19:02 | 55.95217 | -3.36024 | 114 ft | 15 kts | 78° |
| 2026-04-25 19:02 | 55.95134 | -3.35914 | 121 ft | 20 kts | 100° |
| 2026-04-25 19:03 | 55.95072 | -3.35747 | 113 ft | 7 kts | 139° |
| 2026-04-25 19:03 | 55.95037 | -3.35646 | 118 ft | 15 kts | 120° |
| 2026-04-25 19:03 | 55.94995 | -3.35502 | 118 ft | 7 kts | 118° |
| 2026-04-25 19:04 | 55.94933 | -3.35308 | 117 ft | 15 kts | 118° |
| 2026-04-25 19:04 | 55.94888 | -3.35157 | 115 ft | 8 kts | 117° |
| 2026-04-25 19:05 | 55.94805 | -3.34888 | 120 ft | 14 kts | 114° |
| 2026-04-25 19:05 | 55.94795 | -3.34649 | 119 ft | 17 kts | 53° |
| 2026-04-25 19:05 | 55.94841 | -3.34511 | 115 ft | 11 kts | 53° |
| 2026-04-25 19:06 | 55.94862 | -3.34434 | 113 ft | 8 kts | 81° |
| 2026-04-25 19:06 | 55.94871 | -3.34321 | 117 ft | 3 kts | 332° |
| 2026-04-25 19:06 | 55.94872 | -3.34324 | 113 ft | 0 kts | 329° |
| 2026-04-25 19:07 | 55.94872 | -3.34323 | 113 ft | 0 kts | 328° |